sensor_id;sensor_type;location;lat;lon;timestamp;temperature;humidity
28947;DHT22;16052;50.930;5.326;2023-08-07T00:00:36;13.90;99.90
28947;DHT22;16052;50.930;5.326;2023-08-07T00:03:02;13.80;99.90
28947;DHT22;16052;50.930;5.326;2023-08-07T00:05:28;13.80;99.90
28947;DHT22;16052;50.930;5.326;2023-08-07T00:07:54;13.80;99.90
28947;DHT22;16052;50.930;5.326;2023-08-07T00:10:19;13.80;99.90
28947;DHT22;16052;50.930;5.326;2023-08-07T00:12:45;13.80;99.90
28947;DHT22;16052;50.930;5.326;2023-08-07T00:15:11;13.90;99.90
28947;DHT22;16052;50.930;5.326;2023-08-07T00:17:37;13.80;99.90
28947;DHT22;16052;50.930;5.326;2023-08-07T00:20:04;13.90;99.90
28947;DHT22;16052;50.930;5.326;2023-08-07T00:22:31;13.80;99.90
28947;DHT22;16052;50.930;5.326;2023-08-07T00:24:56;13.80;99.90
28947;DHT22;16052;50.930;5.326;2023-08-07T00:27:22;13.80;99.90
28947;DHT22;16052;50.930;5.326;2023-08-07T00:29:48;13.80;99.90
28947;DHT22;16052;50.930;5.326;2023-08-07T00:32:13;13.90;99.90
28947;DHT22;16052;50.930;5.326;2023-08-07T00:34:39;13.80;99.90
28947;DHT22;16052;50.930;5.326;2023-08-07T00:37:05;13.80;99.90
28947;DHT22;16052;50.930;5.326;2023-08-07T00:39:31;13.90;99.90
28947;DHT22;16052;50.930;5.326;2023-08-07T00:41:57;13.90;99.90
28947;DHT22;16052;50.930;5.326;2023-08-07T00:44:23;13.90;99.90
28947;DHT22;16052;50.930;5.326;2023-08-07T00:46:49;13.90;99.90
28947;DHT22;16052;50.930;5.326;2023-08-07T00:49:15;13.90;99.90
28947;DHT22;16052;50.930;5.326;2023-08-07T00:51:41;13.90;99.90
28947;DHT22;16052;50.930;5.326;2023-08-07T00:54:10;13.90;99.90
28947;DHT22;16052;50.930;5.326;2023-08-07T00:56:37;13.90;99.90
28947;DHT22;16052;50.930;5.326;2023-08-07T00:59:03;13.90;99.90
28947;DHT22;16052;50.930;5.326;2023-08-07T01:01:29;13.90;99.90
28947;DHT22;16052;50.930;5.326;2023-08-07T01:03:55;13.80;99.90
28947;DHT22;16052;50.930;5.326;2023-08-07T01:06:21;13.80;99.90
28947;DHT22;16052;50.930;5.326;2023-08-07T01:08:47;13.80;99.90
28947;DHT22;16052;50.930;5.326;2023-08-07T01:11:24;13.80;99.90
28947;DHT22;16052;50.930;5.326;2023-08-07T01:14:02;13.80;99.90
28947;DHT22;16052;50.930;5.326;2023-08-07T01:19:11;13.90;99.90
28947;DHT22;16052;50.930;5.326;2023-08-07T01:21:43;13.80;99.90
28947;DHT22;16052;50.930;5.326;2023-08-07T01:24:09;13.70;99.90
28947;DHT22;16052;50.930;5.326;2023-08-07T01:26:35;13.70;99.90
28947;DHT22;16052;50.930;5.326;2023-08-07T01:29:10;13.70;99.90
28947;DHT22;16052;50.930;5.326;2023-08-07T01:31:39;13.70;99.90
28947;DHT22;16052;50.930;5.326;2023-08-07T01:34:07;13.70;99.90
28947;DHT22;16052;50.930;5.326;2023-08-07T01:36:34;13.70;99.90
28947;DHT22;16052;50.930;5.326;2023-08-07T01:39:01;13.70;99.90
28947;DHT22;16052;50.930;5.326;2023-08-07T01:41:29;13.60;99.90
28947;DHT22;16052;50.930;5.326;2023-08-07T01:43:55;13.60;99.90
28947;DHT22;16052;50.930;5.326;2023-08-07T01:46:22;13.60;99.90
28947;DHT22;16052;50.930;5.326;2023-08-07T01:48:48;13.60;99.90
28947;DHT22;16052;50.930;5.326;2023-08-07T01:51:13;13.70;99.90
28947;DHT22;16052;50.930;5.326;2023-08-07T01:53:39;13.60;99.90
28947;DHT22;16052;50.930;5.326;2023-08-07T01:56:05;13.60;99.90
28947;DHT22;16052;50.930;5.326;2023-08-07T01:58:30;13.70;99.90
28947;DHT22;16052;50.930;5.326;2023-08-07T02:00:56;13.70;99.90
28947;DHT22;16052;50.930;5.326;2023-08-07T02:03:22;13.60;99.90
28947;DHT22;16052;50.930;5.326;2023-08-07T02:05:47;13.60;99.90
28947;DHT22;16052;50.930;5.326;2023-08-07T02:08:13;13.60;99.90
28947;DHT22;16052;50.930;5.326;2023-08-07T02:10:39;13.70;99.90
28947;DHT22;16052;50.930;5.326;2023-08-07T02:13:05;13.70;99.90
28947;DHT22;16052;50.930;5.326;2023-08-07T02:15:31;13.70;99.90
28947;DHT22;16052;50.930;5.326;2023-08-07T02:17:57;13.80;99.90
28947;DHT22;16052;50.930;5.326;2023-08-07T02:20:23;13.70;99.90
28947;DHT22;16052;50.930;5.326;2023-08-07T02:22:49;13.80;99.90
28947;DHT22;16052;50.930;5.326;2023-08-07T02:25:15;13.80;99.90
28947;DHT22;16052;50.930;5.326;2023-08-07T02:27:41;13.70;99.90
28947;DHT22;16052;50.930;5.326;2023-08-07T02:30:07;13.80;99.90
28947;DHT22;16052;50.930;5.326;2023-08-07T02:32:33;13.80;99.90
28947;DHT22;16052;50.930;5.326;2023-08-07T02:34:58;13.90;99.90
28947;DHT22;16052;50.930;5.326;2023-08-07T02:37:24;14.00;99.90
28947;DHT22;16052;50.930;5.326;2023-08-07T02:39:50;14.00;99.90
28947;DHT22;16052;50.930;5.326;2023-08-07T02:42:16;14.10;99.90
28947;DHT22;16052;50.930;5.326;2023-08-07T02:44:41;14.10;99.90
28947;DHT22;16052;50.930;5.326;2023-08-07T02:47:08;14.00;99.90
28947;DHT22;16052;50.930;5.326;2023-08-07T02:49:34;14.00;99.90
28947;DHT22;16052;50.930;5.326;2023-08-07T02:51:59;14.00;99.90
28947;DHT22;16052;50.930;5.326;2023-08-07T02:54:25;14.00;99.90
28947;DHT22;16052;50.930;5.326;2023-08-07T02:56:51;14.00;99.90
28947;DHT22;16052;50.930;5.326;2023-08-07T02:59:16;13.90;99.90
28947;DHT22;16052;50.930;5.326;2023-08-07T03:01:43;13.80;99.90
28947;DHT22;16052;50.930;5.326;2023-08-07T03:04:09;13.80;99.90
28947;DHT22;16052;50.930;5.326;2023-08-07T03:06:35;13.80;99.90
28947;DHT22;16052;50.930;5.326;2023-08-07T03:09:01;13.70;99.90
28947;DHT22;16052;50.930;5.326;2023-08-07T03:11:26;13.70;99.90
28947;DHT22;16052;50.930;5.326;2023-08-07T03:13:52;13.60;99.90
28947;DHT22;16052;50.930;5.326;2023-08-07T03:16:18;13.60;99.90
28947;DHT22;16052;50.930;5.326;2023-08-07T03:18:43;13.70;99.90
28947;DHT22;16052;50.930;5.326;2023-08-07T03:21:09;13.70;99.90
28947;DHT22;16052;50.930;5.326;2023-08-07T03:23:35;13.70;99.90
28947;DHT22;16052;50.930;5.326;2023-08-07T03:26:07;13.70;99.90
28947;DHT22;16052;50.930;5.326;2023-08-07T03:28:35;13.70;99.90
28947;DHT22;16052;50.930;5.326;2023-08-07T03:31:01;13.60;99.90
28947;DHT22;16052;50.930;5.326;2023-08-07T03:33:27;13.60;99.90
28947;DHT22;16052;50.930;5.326;2023-08-07T03:35:52;13.60;99.90
28947;DHT22;16052;50.930;5.326;2023-08-07T03:38:18;13.60;99.90
28947;DHT22;16052;50.930;5.326;2023-08-07T03:40:44;13.60;99.90
28947;DHT22;16052;50.930;5.326;2023-08-07T03:43:10;13.60;99.90
28947;DHT22;16052;50.930;5.326;2023-08-07T03:45:36;13.60;99.90
28947;DHT22;16052;50.930;5.326;2023-08-07T03:48:01;13.50;99.90
28947;DHT22;16052;50.930;5.326;2023-08-07T03:50:27;13.50;99.90
28947;DHT22;16052;50.930;5.326;2023-08-07T03:52:53;13.50;99.90
28947;DHT22;16052;50.930;5.326;2023-08-07T03:55:18;13.50;99.90
28947;DHT22;16052;50.930;5.326;2023-08-07T03:57:44;13.40;99.90
28947;DHT22;16052;50.930;5.326;2023-08-07T04:00:11;13.40;99.90
28947;DHT22;16052;50.930;5.326;2023-08-07T04:02:37;13.40;99.90
28947;DHT22;16052;50.930;5.326;2023-08-07T04:05:02;13.40;99.90
28947;DHT22;16052;50.930;5.326;2023-08-07T04:07:28;13.30;99.90
28947;DHT22;16052;50.930;5.326;2023-08-07T04:09:54;13.30;99.90
28947;DHT22;16052;50.930;5.326;2023-08-07T04:12:19;13.30;99.90
28947;DHT22;16052;50.930;5.326;2023-08-07T04:14:45;13.30;99.90
28947;DHT22;16052;50.930;5.326;2023-08-07T04:17:10;13.30;99.90
28947;DHT22;16052;50.930;5.326;2023-08-07T04:19:36;13.30;99.90
28947;DHT22;16052;50.930;5.326;2023-08-07T04:22:02;13.30;99.90
28947;DHT22;16052;50.930;5.326;2023-08-07T04:24:28;13.30;99.90
28947;DHT22;16052;50.930;5.326;2023-08-07T04:26:54;13.30;99.90
28947;DHT22;16052;50.930;5.326;2023-08-07T04:29:19;13.20;99.90
28947;DHT22;16052;50.930;5.326;2023-08-07T04:31:45;13.20;99.90
28947;DHT22;16052;50.930;5.326;2023-08-07T04:34:11;13.20;99.90
28947;DHT22;16052;50.930;5.326;2023-08-07T04:36:38;13.20;99.90
28947;DHT22;16052;50.930;5.326;2023-08-07T04:39:03;13.20;99.90
28947;DHT22;16052;50.930;5.326;2023-08-07T04:41:29;13.20;99.90
28947;DHT22;16052;50.930;5.326;2023-08-07T04:43:55;13.10;99.90
28947;DHT22;16052;50.930;5.326;2023-08-07T04:46:20;13.10;99.90
28947;DHT22;16052;50.930;5.326;2023-08-07T04:48:46;13.20;99.90
28947;DHT22;16052;50.930;5.326;2023-08-07T04:51:13;13.20;99.90
28947;DHT22;16052;50.930;5.326;2023-08-07T04:53:38;13.20;99.90
28947;DHT22;16052;50.930;5.326;2023-08-07T04:56:04;13.20;99.90
28947;DHT22;16052;50.930;5.326;2023-08-07T04:58:30;13.30;99.90
28947;DHT22;16052;50.930;5.326;2023-08-07T05:00:56;13.20;99.90
28947;DHT22;16052;50.930;5.326;2023-08-07T05:03:22;13.20;99.90
28947;DHT22;16052;50.930;5.326;2023-08-07T05:05:48;13.20;99.90
28947;DHT22;16052;50.930;5.326;2023-08-07T05:08:14;13.20;99.90
28947;DHT22;16052;50.930;5.326;2023-08-07T05:10:39;13.30;99.90
28947;DHT22;16052;50.930;5.326;2023-08-07T05:13:05;13.40;99.90
28947;DHT22;16052;50.930;5.326;2023-08-07T05:15:31;13.40;99.90
28947;DHT22;16052;50.930;5.326;2023-08-07T05:17:57;13.40;99.90
28947;DHT22;16052;50.930;5.326;2023-08-07T05:20:23;13.40;99.90
28947;DHT22;16052;50.930;5.326;2023-08-07T05:22:49;13.30;99.90
28947;DHT22;16052;50.930;5.326;2023-08-07T05:25:15;13.30;99.90
28947;DHT22;16052;50.930;5.326;2023-08-07T05:27:45;13.30;99.90
28947;DHT22;16052;50.930;5.326;2023-08-07T05:30:11;13.30;99.90
28947;DHT22;16052;50.930;5.326;2023-08-07T05:32:37;13.30;99.90
28947;DHT22;16052;50.930;5.326;2023-08-07T05:35:05;13.30;99.90
28947;DHT22;16052;50.930;5.326;2023-08-07T05:37:31;13.30;99.90
28947;DHT22;16052;50.930;5.326;2023-08-07T05:39:57;13.40;99.90
28947;DHT22;16052;50.930;5.326;2023-08-07T05:42:23;13.40;99.90
28947;DHT22;16052;50.930;5.326;2023-08-07T05:44:49;13.40;99.90
28947;DHT22;16052;50.930;5.326;2023-08-07T05:47:14;13.40;99.90
28947;DHT22;16052;50.930;5.326;2023-08-07T05:49:40;13.50;99.90
28947;DHT22;16052;50.930;5.326;2023-08-07T05:52:06;13.50;99.90
28947;DHT22;16052;50.930;5.326;2023-08-07T05:54:32;13.50;99.90
28947;DHT22;16052;50.930;5.326;2023-08-07T05:56:57;13.50;99.90
28947;DHT22;16052;50.930;5.326;2023-08-07T05:59:23;13.50;99.90
28947;DHT22;16052;50.930;5.326;2023-08-07T06:01:49;13.50;99.90
28947;DHT22;16052;50.930;5.326;2023-08-07T06:04:14;13.60;99.90
28947;DHT22;16052;50.930;5.326;2023-08-07T06:06:40;13.70;99.90
28947;DHT22;16052;50.930;5.326;2023-08-07T06:09:08;13.70;99.90
28947;DHT22;16052;50.930;5.326;2023-08-07T06:11:33;13.70;99.90
28947;DHT22;16052;50.930;5.326;2023-08-07T06:13:59;13.70;99.90
28947;DHT22;16052;50.930;5.326;2023-08-07T06:16:25;13.80;99.90
28947;DHT22;16052;50.930;5.326;2023-08-07T06:18:51;13.90;99.90
28947;DHT22;16052;50.930;5.326;2023-08-07T06:21:16;13.90;99.90
28947;DHT22;16052;50.930;5.326;2023-08-07T06:23:42;14.00;99.90
28947;DHT22;16052;50.930;5.326;2023-08-07T06:26:08;14.00;99.90
28947;DHT22;16052;50.930;5.326;2023-08-07T06:28:35;14.00;99.90
28947;DHT22;16052;50.930;5.326;2023-08-07T06:31:10;14.00;99.90
28947;DHT22;16052;50.930;5.326;2023-08-07T06:33:36;13.90;99.90
28947;DHT22;16052;50.930;5.326;2023-08-07T06:36:03;13.90;99.90
28947;DHT22;16052;50.930;5.326;2023-08-07T06:38:29;14.00;99.90
28947;DHT22;16052;50.930;5.326;2023-08-07T06:40:55;14.00;99.90
28947;DHT22;16052;50.930;5.326;2023-08-07T06:43:21;14.10;99.90
28947;DHT22;16052;50.930;5.326;2023-08-07T06:45:49;14.10;99.90
28947;DHT22;16052;50.930;5.326;2023-08-07T06:48:16;14.10;99.90
28947;DHT22;16052;50.930;5.326;2023-08-07T06:50:41;14.10;99.90
28947;DHT22;16052;50.930;5.326;2023-08-07T06:53:07;14.20;99.90
28947;DHT22;16052;50.930;5.326;2023-08-07T06:55:33;14.30;99.90
28947;DHT22;16052;50.930;5.326;2023-08-07T06:57:59;14.40;99.90
28947;DHT22;16052;50.930;5.326;2023-08-07T07:00:25;14.40;99.90
28947;DHT22;16052;50.930;5.326;2023-08-07T07:02:50;14.40;99.90
28947;DHT22;16052;50.930;5.326;2023-08-07T07:05:16;14.40;99.90
28947;DHT22;16052;50.930;5.326;2023-08-07T07:07:42;14.50;99.90
28947;DHT22;16052;50.930;5.326;2023-08-07T07:10:08;14.60;99.90
28947;DHT22;16052;50.930;5.326;2023-08-07T07:12:34;14.70;99.90
28947;DHT22;16052;50.930;5.326;2023-08-07T07:15:00;14.60;99.90
28947;DHT22;16052;50.930;5.326;2023-08-07T07:17:26;14.60;99.90
28947;DHT22;16052;50.930;5.326;2023-08-07T07:19:52;14.70;99.90
28947;DHT22;16052;50.930;5.326;2023-08-07T07:22:19;14.70;99.90
28947;DHT22;16052;50.930;5.326;2023-08-07T07:24:44;14.80;99.90
28947;DHT22;16052;50.930;5.326;2023-08-07T07:27:10;14.80;99.90
28947;DHT22;16052;50.930;5.326;2023-08-07T07:29:36;14.80;99.90
28947;DHT22;16052;50.930;5.326;2023-08-07T07:32:01;14.90;99.90
28947;DHT22;16052;50.930;5.326;2023-08-07T07:34:27;14.90;99.90
28947;DHT22;16052;50.930;5.326;2023-08-07T07:36:53;15.00;99.90
28947;DHT22;16052;50.930;5.326;2023-08-07T07:39:19;15.20;99.90
28947;DHT22;16052;50.930;5.326;2023-08-07T07:41:45;15.20;99.90
28947;DHT22;16052;50.930;5.326;2023-08-07T07:44:11;15.30;99.90
28947;DHT22;16052;50.930;5.326;2023-08-07T07:46:36;15.50;99.90
28947;DHT22;16052;50.930;5.326;2023-08-07T07:49:02;15.70;99.90
28947;DHT22;16052;50.930;5.326;2023-08-07T07:51:30;15.80;99.90
28947;DHT22;16052;50.930;5.326;2023-08-07T07:53:57;15.80;99.90
28947;DHT22;16052;50.930;5.326;2023-08-07T07:56:23;15.90;99.90
28947;DHT22;16052;50.930;5.326;2023-08-07T07:58:49;16.00;99.90
28947;DHT22;16052;50.930;5.326;2023-08-07T08:01:15;15.80;99.90
28947;DHT22;16052;50.930;5.326;2023-08-07T08:03:41;15.80;99.90
28947;DHT22;16052;50.930;5.326;2023-08-07T08:06:11;15.70;99.90
28947;DHT22;16052;50.930;5.326;2023-08-07T08:08:36;15.70;99.90
28947;DHT22;16052;50.930;5.326;2023-08-07T08:11:02;15.60;99.90
28947;DHT22;16052;50.930;5.326;2023-08-07T08:13:28;15.70;99.90
28947;DHT22;16052;50.930;5.326;2023-08-07T08:15:54;15.70;99.90
28947;DHT22;16052;50.930;5.326;2023-08-07T08:18:19;15.70;99.90
28947;DHT22;16052;50.930;5.326;2023-08-07T08:20:45;15.70;99.90
28947;DHT22;16052;50.930;5.326;2023-08-07T08:23:11;15.80;99.90
28947;DHT22;16052;50.930;5.326;2023-08-07T08:25:36;15.90;99.90
28947;DHT22;16052;50.930;5.326;2023-08-07T08:28:02;15.90;99.90
28947;DHT22;16052;50.930;5.326;2023-08-07T08:30:29;15.90;99.90
28947;DHT22;16052;50.930;5.326;2023-08-07T08:32:55;16.00;99.90
28947;DHT22;16052;50.930;5.326;2023-08-07T08:35:21;16.20;99.90
28947;DHT22;16052;50.930;5.326;2023-08-07T08:37:46;16.30;99.90
28947;DHT22;16052;50.930;5.326;2023-08-07T08:40:13;16.40;99.90
28947;DHT22;16052;50.930;5.326;2023-08-07T08:42:43;16.40;99.90
28947;DHT22;16052;50.930;5.326;2023-08-07T08:45:10;16.50;99.90
28947;DHT22;16052;50.930;5.326;2023-08-07T08:47:38;16.50;99.90
28947;DHT22;16052;50.930;5.326;2023-08-07T08:50:14;16.70;99.90
28947;DHT22;16052;50.930;5.326;2023-08-07T08:52:44;16.70;99.90
28947;DHT22;16052;50.930;5.326;2023-08-07T08:55:11;16.50;99.90
28947;DHT22;16052;50.930;5.326;2023-08-07T08:57:38;16.60;99.90
28947;DHT22;16052;50.930;5.326;2023-08-07T09:00:06;16.60;99.00
28947;DHT22;16052;50.930;5.326;2023-08-07T09:02:42;16.70;99.20
28947;DHT22;16052;50.930;5.326;2023-08-07T09:05:08;16.80;99.70
28947;DHT22;16052;50.930;5.326;2023-08-07T09:07:35;16.80;97.30
28947;DHT22;16052;50.930;5.326;2023-08-07T09:10:03;16.80;99.90
28947;DHT22;16052;50.930;5.326;2023-08-07T09:12:31;16.70;99.90
28947;DHT22;16052;50.930;5.326;2023-08-07T09:14:58;16.60;99.90
28947;DHT22;16052;50.930;5.326;2023-08-07T09:17:26;16.60;99.90
28947;DHT22;16052;50.930;5.326;2023-08-07T09:19:53;16.70;99.90
28947;DHT22;16052;50.930;5.326;2023-08-07T09:22:19;16.80;99.90
28947;DHT22;16052;50.930;5.326;2023-08-07T09:24:45;16.90;99.90
28947;DHT22;16052;50.930;5.326;2023-08-07T09:27:11;17.00;99.90
28947;DHT22;16052;50.930;5.326;2023-08-07T09:29:40;16.90;99.90
28947;DHT22;16052;50.930;5.326;2023-08-07T09:32:14;16.90;99.90
28947;DHT22;16052;50.930;5.326;2023-08-07T09:34:40;16.90;99.90
28947;DHT22;16052;50.930;5.326;2023-08-07T09:37:08;16.80;99.90
28947;DHT22;16052;50.930;5.326;2023-08-07T09:39:34;16.70;99.90
28947;DHT22;16052;50.930;5.326;2023-08-07T09:42:02;16.60;99.90
28947;DHT22;16052;50.930;5.326;2023-08-07T09:44:35;16.90;99.90
28947;DHT22;16052;50.930;5.326;2023-08-07T09:47:11;17.10;98.70
28947;DHT22;16052;50.930;5.326;2023-08-07T09:49:38;17.30;95.90
28947;DHT22;16052;50.930;5.326;2023-08-07T09:52:06;17.60;93.00
28947;DHT22;16052;50.930;5.326;2023-08-07T09:54:33;17.60;86.80
28947;DHT22;16052;50.930;5.326;2023-08-07T09:57:00;17.50;13.60
28947;DHT22;16052;50.930;5.326;2023-08-07T09:59:28;17.40;17.40
28947;DHT22;16052;50.930;5.326;2023-08-07T10:01:55;17.30;23.20
28947;DHT22;16052;50.930;5.326;2023-08-07T10:04:24;17.20;24.90
28947;DHT22;16052;50.930;5.326;2023-08-07T10:06:50;17.20;28.20
28947;DHT22;16052;50.930;5.326;2023-08-07T10:09:16;17.30;17.20
28947;DHT22;16052;50.930;5.326;2023-08-07T10:11:42;17.40;11.80
28947;DHT22;16052;50.930;5.326;2023-08-07T10:14:13;17.50;15.30
28947;DHT22;16052;50.930;5.326;2023-08-07T10:16:40;17.70;1.00
28947;DHT22;16052;50.930;5.326;2023-08-07T10:19:07;17.70;1.00
28947;DHT22;16052;50.930;5.326;2023-08-07T10:21:40;18.00;1.00
28947;DHT22;16052;50.930;5.326;2023-08-07T10:24:07;18.10;1.00
28947;DHT22;16052;50.930;5.326;2023-08-07T10:26:34;18.20;1.00
28947;DHT22;16052;50.930;5.326;2023-08-07T10:29:02;18.20;1.00
28947;DHT22;16052;50.930;5.326;2023-08-07T10:31:30;18.30;1.00
28947;DHT22;16052;50.930;5.326;2023-08-07T10:33:56;18.20;1.00
28947;DHT22;16052;50.930;5.326;2023-08-07T10:36:22;18.20;1.00
28947;DHT22;16052;50.930;5.326;2023-08-07T10:39:09;18.20;1.00
28947;DHT22;16052;50.930;5.326;2023-08-07T10:42:01;18.30;1.00
28947;DHT22;16052;50.930;5.326;2023-08-07T10:44:30;18.30;1.00
28947;DHT22;16052;50.930;5.326;2023-08-07T10:46:57;18.10;1.00
28947;DHT22;16052;50.930;5.326;2023-08-07T10:49:37;18.20;1.00
28947;DHT22;16052;50.930;5.326;2023-08-07T10:52:13;18.40;1.00
28947;DHT22;16052;50.930;5.326;2023-08-07T10:54:48;18.40;1.00
28947;DHT22;16052;50.930;5.326;2023-08-07T10:57:17;18.50;1.00
28947;DHT22;16052;50.930;5.326;2023-08-07T11:02:28;18.60;1.00
28947;DHT22;16052;50.930;5.326;2023-08-07T11:04:55;18.60;1.00
28947;DHT22;16052;50.930;5.326;2023-08-07T11:07:40;18.50;1.00
28947;DHT22;16052;50.930;5.326;2023-08-07T11:10:07;18.50;1.00
28947;DHT22;16052;50.930;5.326;2023-08-07T11:12:32;18.40;1.00
28947;DHT22;16052;50.930;5.326;2023-08-07T11:14:59;18.20;1.00
28947;DHT22;16052;50.930;5.326;2023-08-07T11:17:26;18.00;1.00
28947;DHT22;16052;50.930;5.326;2023-08-07T11:19:53;17.90;1.00
28947;DHT22;16052;50.930;5.326;2023-08-07T11:22:20;17.90;1.00
28947;DHT22;16052;50.930;5.326;2023-08-07T11:24:46;18.00;1.00
28947;DHT22;16052;50.930;5.326;2023-08-07T11:27:12;18.40;1.00
28947;DHT22;16052;50.930;5.326;2023-08-07T11:29:38;18.70;1.00
28947;DHT22;16052;50.930;5.326;2023-08-07T11:32:04;19.00;1.00
28947;DHT22;16052;50.930;5.326;2023-08-07T11:34:30;19.30;1.00
28947;DHT22;16052;50.930;5.326;2023-08-07T11:36:56;19.60;1.00
28947;DHT22;16052;50.930;5.326;2023-08-07T11:39:23;19.80;1.00
28947;DHT22;16052;50.930;5.326;2023-08-07T11:41:53;19.50;99.90
28947;DHT22;16052;50.930;5.326;2023-08-07T11:44:19;19.40;99.90
28947;DHT22;16052;50.930;5.326;2023-08-07T11:46:45;19.20;1.00
28947;DHT22;16052;50.930;5.326;2023-08-07T11:49:10;19.40;1.00
28947;DHT22;16052;50.930;5.326;2023-08-07T11:51:37;19.60;1.00
28947;DHT22;16052;50.930;5.326;2023-08-07T11:54:03;19.70;99.90
28947;DHT22;16052;50.930;5.326;2023-08-07T11:56:29;19.80;99.90
28947;DHT22;16052;50.930;5.326;2023-08-07T11:58:57;19.90;99.90
28947;DHT22;16052;50.930;5.326;2023-08-07T12:01:24;20.10;99.90
28947;DHT22;16052;50.930;5.326;2023-08-07T12:06:32;20.20;99.90
28947;DHT22;16052;50.930;5.326;2023-08-07T12:08:59;20.10;99.90
28947;DHT22;16052;50.930;5.326;2023-08-07T12:11:25;20.00;99.90
28947;DHT22;16052;50.930;5.326;2023-08-07T12:13:51;20.00;99.90
28947;DHT22;16052;50.930;5.326;2023-08-07T12:16:17;20.00;99.90
28947;DHT22;16052;50.930;5.326;2023-08-07T12:18:48;20.00;99.90
28947;DHT22;16052;50.930;5.326;2023-08-07T12:21:16;20.20;99.90
28947;DHT22;16052;50.930;5.326;2023-08-07T12:23:44;20.00;99.90
28947;DHT22;16052;50.930;5.326;2023-08-07T12:26:10;20.10;99.90
28947;DHT22;16052;50.930;5.326;2023-08-07T12:28:36;20.00;99.90
28947;DHT22;16052;50.930;5.326;2023-08-07T12:31:02;19.80;99.90
28947;DHT22;16052;50.930;5.326;2023-08-07T12:33:29;19.70;99.90
28947;DHT22;16052;50.930;5.326;2023-08-07T12:35:55;19.60;99.90
28947;DHT22;16052;50.930;5.326;2023-08-07T12:38:21;19.60;99.90
28947;DHT22;16052;50.930;5.326;2023-08-07T12:40:47;19.70;99.90
28947;DHT22;16052;50.930;5.326;2023-08-07T12:43:13;19.60;99.90
28947;DHT22;16052;50.930;5.326;2023-08-07T12:45:39;19.50;99.90
28947;DHT22;16052;50.930;5.326;2023-08-07T12:48:05;19.40;99.90
28947;DHT22;16052;50.930;5.326;2023-08-07T12:50:31;19.40;99.90
28947;DHT22;16052;50.930;5.326;2023-08-07T12:52:57;19.50;99.90
28947;DHT22;16052;50.930;5.326;2023-08-07T12:55:24;19.50;99.90
28947;DHT22;16052;50.930;5.326;2023-08-07T12:57:54;19.40;99.90
28947;DHT22;16052;50.930;5.326;2023-08-07T13:00:20;19.20;99.90
28947;DHT22;16052;50.930;5.326;2023-08-07T13:02:47;19.30;99.90
28947;DHT22;16052;50.930;5.326;2023-08-07T13:05:14;19.40;99.90
28947;DHT22;16052;50.930;5.326;2023-08-07T13:07:41;19.70;99.90
28947;DHT22;16052;50.930;5.326;2023-08-07T13:10:08;19.90;99.90
28947;DHT22;16052;50.930;5.326;2023-08-07T13:12:35;20.00;99.90
28947;DHT22;16052;50.930;5.326;2023-08-07T13:15:03;20.10;99.90
28947;DHT22;16052;50.930;5.326;2023-08-07T13:17:30;20.00;96.10
28947;DHT22;16052;50.930;5.326;2023-08-07T13:19:56;20.20;99.90
28947;DHT22;16052;50.930;5.326;2023-08-07T13:22:22;20.30;99.90
28947;DHT22;16052;50.930;5.326;2023-08-07T13:24:48;20.50;99.90
28947;DHT22;16052;50.930;5.326;2023-08-07T13:27:13;20.50;99.90
28947;DHT22;16052;50.930;5.326;2023-08-07T13:29:39;20.50;1.00
28947;DHT22;16052;50.930;5.326;2023-08-07T13:32:05;20.50;1.00
28947;DHT22;16052;50.930;5.326;2023-08-07T13:34:38;20.70;1.00
28947;DHT22;16052;50.930;5.326;2023-08-07T13:37:07;20.70;1.00
28947;DHT22;16052;50.930;5.326;2023-08-07T13:39:33;20.90;1.00
28947;DHT22;16052;50.930;5.326;2023-08-07T13:41:58;21.20;1.00
28947;DHT22;16052;50.930;5.326;2023-08-07T13:44:28;21.60;1.00
28947;DHT22;16052;50.930;5.326;2023-08-07T13:46:54;21.70;1.00
28947;DHT22;16052;50.930;5.326;2023-08-07T13:49:21;21.80;1.00
28947;DHT22;16052;50.930;5.326;2023-08-07T13:51:47;21.80;1.00
28947;DHT22;16052;50.930;5.326;2023-08-07T13:54:13;21.50;1.00
28947;DHT22;16052;50.930;5.326;2023-08-07T13:56:39;21.20;1.00
28947;DHT22;16052;50.930;5.326;2023-08-07T13:59:04;20.80;1.00
28947;DHT22;16052;50.930;5.326;2023-08-07T14:01:30;20.60;1.00
28947;DHT22;16052;50.930;5.326;2023-08-07T14:03:56;20.50;1.00
28947;DHT22;16052;50.930;5.326;2023-08-07T14:06:22;20.40;1.00
28947;DHT22;16052;50.930;5.326;2023-08-07T14:08:47;20.30;1.00
28947;DHT22;16052;50.930;5.326;2023-08-07T14:11:13;20.20;1.00
28947;DHT22;16052;50.930;5.326;2023-08-07T14:13:40;20.10;1.00
28947;DHT22;16052;50.930;5.326;2023-08-07T14:16:06;20.10;99.90
28947;DHT22;16052;50.930;5.326;2023-08-07T14:18:32;20.20;99.90
28947;DHT22;16052;50.930;5.326;2023-08-07T14:20:58;20.20;99.90
28947;DHT22;16052;50.930;5.326;2023-08-07T14:23:24;20.10;99.90
28947;DHT22;16052;50.930;5.326;2023-08-07T14:25:49;20.00;99.90
28947;DHT22;16052;50.930;5.326;2023-08-07T14:28:17;20.00;99.90
28947;DHT22;16052;50.930;5.326;2023-08-07T14:30:43;20.10;99.90
28947;DHT22;16052;50.930;5.326;2023-08-07T14:33:08;20.20;99.90
28947;DHT22;16052;50.930;5.326;2023-08-07T14:35:34;20.20;99.90
28947;DHT22;16052;50.930;5.326;2023-08-07T14:38:00;20.20;99.90
28947;DHT22;16052;50.930;5.326;2023-08-07T14:40:25;20.20;99.90
28947;DHT22;16052;50.930;5.326;2023-08-07T14:42:53;20.20;99.90
28947;DHT22;16052;50.930;5.326;2023-08-07T14:45:20;20.20;99.90
28947;DHT22;16052;50.930;5.326;2023-08-07T14:47:46;20.20;99.90
28947;DHT22;16052;50.930;5.326;2023-08-07T14:50:12;20.00;99.90
28947;DHT22;16052;50.930;5.326;2023-08-07T14:52:38;20.00;99.90
28947;DHT22;16052;50.930;5.326;2023-08-07T14:55:04;20.00;99.90
28947;DHT22;16052;50.930;5.326;2023-08-07T14:57:29;20.00;99.90
28947;DHT22;16052;50.930;5.326;2023-08-07T14:59:55;20.00;99.90
28947;DHT22;16052;50.930;5.326;2023-08-07T15:02:21;19.90;99.90
28947;DHT22;16052;50.930;5.326;2023-08-07T15:04:46;19.90;1.00
28947;DHT22;16052;50.930;5.326;2023-08-07T15:07:12;20.00;1.00
28947;DHT22;16052;50.930;5.326;2023-08-07T15:09:38;20.10;99.90
28947;DHT22;16052;50.930;5.326;2023-08-07T15:12:05;20.10;1.00
28947;DHT22;16052;50.930;5.326;2023-08-07T15:14:32;20.00;99.90
28947;DHT22;16052;50.930;5.326;2023-08-07T15:16:58;20.00;1.00
28947;DHT22;16052;50.930;5.326;2023-08-07T15:19:23;20.10;1.00
28947;DHT22;16052;50.930;5.326;2023-08-07T15:21:52;20.00;99.90
28947;DHT22;16052;50.930;5.326;2023-08-07T15:24:18;20.00;1.00
28947;DHT22;16052;50.930;5.326;2023-08-07T15:26:43;20.30;1.00
28947;DHT22;16052;50.930;5.326;2023-08-07T15:29:10;20.50;99.90
28947;DHT22;16052;50.930;5.326;2023-08-07T15:31:36;20.70;99.90
28947;DHT22;16052;50.930;5.326;2023-08-07T15:34:02;20.90;99.90
28947;DHT22;16052;50.930;5.326;2023-08-07T15:36:28;20.70;99.90